Pagrindinis puslapis
METAR-TAF:

METAR-TAF

Oro uostai :

Šo de Fonas, Šveicarija

platuma: 47-05-03N, ilguma: 006-47-37E, Aukštis: 1027 m

Dabartinis oras

Ataskaita buvo paskelbta 29 minutes, ne 22:50 UTC
Vėjas 1 kt nuo kintamojo kryptimis
Temperatūra 4°C
Drėgmė 75%
Slėgis 1027 hPa
Matomumas 10 km arba daugiau
nėra debesų žemiau 1500 m ir nėra kamuolinių lietaus debesų

METAR: LSGC 072250Z AUTO VRB01KT CAVOK 04/M00 Q1027

Laikas: 01:19 (23:19 UTC)

Prognozė

Ataskaita buvo paskelbta 8 valandos ir 54 minutes, ne 14:25 UTC
Prognozė galioja nuo 07 metu 15 UTC su 07 metu 24 UTC
Vėjas 10 kt iš Rytų
Matomumas 10 km arba daugiau
nėra debesų žemiau 1500 m ir nėra kamuolinių lietaus debesų
Tapsmas
nuo 07 metu 16 UTC su 07 metu 19 UTC
Vėjas 3 kt nuo kintamojo kryptimis

TAF: LSGC 071425Z 0715/0724 09010KT CAVOK BECMG 0716/0719 VRB03KT

Orai ataskaitas ir orų prognozės (METAR, TAF).

turimą stotys yra geltonos ir raudonos taškus žemėlapyje.

Perkelti pele per norėdami pamatyti stoties vardą.

Tada spustelėkite, norėdami matyti oro stebėjimo ir prognozės.

Norėdami pakeisti žemėlapį: spustelėkite ant žalios mygtukų su juodo kryžiaus žemyn,; žalią mygtuką su brūkšneliu, jei norite nutolinti; arba žalių rodyklių gretimoms žemėlapius.


METAR-TAF: